Time;durP1;ratioP1;P1;durP2;ratioP2;P2;SDS_P1;SDS_P2;PMS_P1;PMS_P2;Temp;Humidity;BMP_temperature;BMP_pressure;BME280_temperature;BME280_humidity;BME280_pressure;Samples;Min_cycle;Max_cycle;Signal;HPM_P1;HPM_P2
2022/08/17 00:00:27;;;;;;;20.92;12.10;;;;;;;20.79;65.10;97938.41;5030052;28;20033;-71
2022/08/17 00:02:59;;;;;;;17.02;12.85;;;;;;;20.79;65.08;97944.81;5030792;28;20032;-71
2022/08/17 00:05:26;;;;;;;19.38;12.98;;;;;;;20.78;65.09;97943.22;5031181;28;20032;-71
2022/08/17 00:07:51;;;;;;;21.70;13.30;;;;;;;20.78;65.37;97936.84;5030895;28;20206;-71
2022/08/17 00:10:17;;;;;;;19.25;13.05;;;;;;;20.79;65.38;97936.44;5031255;28;20480;-71
2022/08/17 00:12:43;;;;;;;18.50;12.93;;;;;;;20.81;65.51;97941.63;5030869;28;20033;-71
2022/08/17 00:15:10;;;;;;;14.77;12.45;;;;;;;20.80;65.46;97935.28;5031056;28;20100;-71
2022/08/17 00:17:35;;;;;;;17.77;12.30;;;;;;;20.80;65.62;97940.84;5033946;28;20391;-71
2022/08/17 00:20:01;;;;;;;16.75;12.68;;;;;;;20.80;65.61;97934.47;5030622;28;20020;-71
2022/08/17 00:22:26;;;;;;;17.33;12.88;;;;;;;20.79;65.40;97939.25;5030359;28;20025;-71
2022/08/17 00:24:52;;;;;;;17.08;12.15;;;;;;;20.78;65.81;97942.41;5030619;28;20032;-71
2022/08/17 00:27:18;;;;;;;14.40;11.55;;;;;;;20.78;65.83;97948.00;5030306;28;20029;-72
2022/08/17 00:29:44;;;;;;;15.18;11.32;;;;;;;20.77;66.07;97938.03;5030515;28;20025;-71
2022/08/17 00:32:11;;;;;;;16.70;11.85;;;;;;;20.78;66.16;97945.19;5026696;28;20379;-72
2022/08/17 00:34:37;;;;;;;14.93;11.93;;;;;;;20.76;66.04;97950.31;5030479;28;20108;-72
2022/08/17 00:37:03;;;;;;;16.92;11.52;;;;;;;20.74;65.93;97947.91;5030209;28;20497;-71
2022/08/17 00:39:29;;;;;;;17.30;12.43;;;;;;;20.73;66.00;97946.28;5030490;28;20033;-71
2022/08/17 00:41:54;;;;;;;14.45;12.23;;;;;;;20.73;65.98;97946.28;5030927;28;20022;-71
2022/08/17 00:44:19;;;;;;;15.75;11.70;;;;;;;20.72;65.87;97944.69;5031524;28;20095;-71
2022/08/17 00:46:46;;;;;;;15.95;12.63;;;;;;;20.71;66.10;97953.44;5031080;28;20151;-72
2022/08/17 00:49:14;;;;;;;15.57;12.65;;;;;;;20.71;66.21;97945.88;5031107;28;20036;-71
2022/08/17 00:51:51;;;;;;;15.90;12.05;;;;;;;20.69;66.20;97939.84;5030592;28;20025;-71
2022/08/17 00:54:28;;;;;;;19.38;13.15;;;;;;;20.68;66.29;97946.63;5030781;28;20049;-71
2022/08/17 00:56:57;;;;;;;15.95;12.73;;;;;;;20.66;66.20;97947.00;5030659;28;20063;-71
2022/08/17 00:59:29;;;;;;;16.27;12.20;;;;;;;20.66;66.04;97946.19;5030926;28;20034;-71
2022/08/17 01:01:56;;;;;;;15.52;12.02;;;;;;;20.64;66.29;97951.31;5030836;28;20013;-71
2022/08/17 01:04:23;;;;;;;15.60;11.85;;;;;;;20.63;66.23;97941.38;5029587;28;20025;-71
2022/08/17 01:06:51;;;;;;;15.27;12.13;;;;;;;20.62;66.18;97945.31;5030898;28;20021;-72
2022/08/17 01:09:18;;;;;;;16.00;12.87;;;;;;;20.61;66.25;97949.28;5030921;28;20013;-71
2022/08/17 01:11:50;;;;;;;18.73;13.52;;;;;;;20.60;66.30;97947.69;5030764;28;20125;-71
2022/08/17 01:14:25;;;;;;;16.73;12.52;;;;;;;20.60;66.26;97942.13;5030779;28;20021;-71
2022/08/17 01:16:53;;;;;;;15.32;12.35;;;;;;;20.60;66.47;97948.50;5030869;28;20468;-71
2022/08/17 01:19:23;;;;;;;17.67;12.68;;;;;;;20.58;66.44;97944.50;5030768;28;20450;-71
2022/08/17 01:22:04;;;;;;;18.05;13.15;;;;;;;20.53;66.47;97942.81;5030924;28;20037;-71
2022/08/17 01:24:30;;;;;;;18.20;12.38;;;;;;;20.55;66.45;97945.25;5030199;28;20034;-72
2022/08/17 01:26:55;;;;;;;15.55;12.20;;;;;;;20.53;66.37;97945.59;5020445;28;20033;-72
2022/08/17 01:29:23;;;;;;;14.82;12.32;;;;;;;20.50;66.55;97949.97;5030377;28;20399;-72
2022/08/17 01:31:53;;;;;;;17.40;13.38;;;;;;;20.48;66.67;97955.09;5031534;28;20037;-71
2022/08/17 01:34:20;;;;;;;14.73;12.48;;;;;;;20.45;66.58;97953.06;5030402;28;20033;-71
2022/08/17 01:36:48;;;;;;;16.52;12.27;;;;;;;20.41;66.60;97951.38;5032078;28;20040;-71
2022/08/17 01:39:28;;;;;;;16.70;12.35;;;;;;;20.38;66.45;97950.94;5030407;28;20041;-71
2022/08/17 01:42:00;;;;;;;16.23;12.57;;;;;;;20.35;66.78;97943.38;5013441;28;20036;-71
2022/08/17 01:44:26;;;;;;;15.15;12.27;;;;;;;20.33;66.66;97948.50;5030794;28;20041;-70
2022/08/17 01:46:52;;;;;;;16.60;12.98;;;;;;;20.31;66.80;97952.84;5051847;28;20036;-72
2022/08/17 01:49:17;;;;;;;16.45;12.32;;;;;;;20.28;66.75;97951.63;5035075;28;20029;-71
2022/08/17 01:51:43;;;;;;;18.48;13.48;;;;;;;20.26;66.67;97953.97;5031713;28;20045;-71
2022/08/17 01:54:13;;;;;;;17.60;13.10;;;;;;;20.25;66.92;97951.53;5032848;28;20033;-71
2022/08/17 01:56:50;;;;;;;16.80;12.98;;;;;;;20.26;66.92;97955.94;5031125;28;20013;-71
2022/08/17 01:59:18;;;;;;;17.30;13.65;;;;;;;20.25;67.21;97948.75;5031641;28;20037;-71
2022/08/17 02:01:43;;;;;;;19.05;13.75;;;;;;;20.26;67.07;97953.16;5033472;28;20531;-71
2022/08/17 02:04:10;;;;;;;17.38;14.05;;;;;;;20.28;67.52;97950.78;5031950;28;20022;-71
2022/08/17 02:06:38;;;;;;;17.83;12.82;;;;;;;20.32;67.63;97948.88;5035337;28;20034;-71
2022/08/17 02:09:04;;;;;;;18.60;13.18;;;;;;;20.33;67.70;97945.72;5034077;28;20025;-72
2022/08/17 02:11:32;;;;;;;18.60;14.35;;;;;;;20.36;67.74;97952.53;5035208;28;20037;-71
2022/08/17 02:13:58;;;;;;;17.55;13.63;;;;;;;20.37;67.78;97945.78;5035571;28;20133;-72
2022/08/17 02:16:23;;;;;;;19.50;14.45;;;;;;;20.38;68.16;97950.16;5035302;28;20101;-71
2022/08/17 02:18:48;;;;;;;17.73;13.60;;;;;;;20.42;68.17;97951.03;5035139;28;20022;-71
2022/08/17 02:21:14;;;;;;;17.02;13.05;;;;;;;20.45;68.33;97950.28;5035098;28;20029;-71
2022/08/17 02:23:44;;;;;;;16.45;13.18;;;;;;;20.47;68.18;97949.88;5035256;28;20032;-71
2022/08/17 02:26:10;;;;;;;18.35;13.32;;;;;;;20.48;68.37;97946.75;5034968;28;20022;-71
2022/08/17 02:28:35;;;;;;;18.25;13.60;;;;;;;20.51;68.52;97951.56;5034968;28;20462;-72
2022/08/17 02:31:06;;;;;;;18.65;13.77;;;;;;;20.52;68.40;97942.03;5034961;28;20030;-72
2022/08/17 02:33:33;;;;;;;18.33;13.57;;;;;;;20.55;68.54;97950.81;5034733;28;20030;-72
2022/08/17 02:35:58;;;;;;;18.67;14.32;;;;;;;20.57;68.35;97951.25;5034830;28;20075;-72
2022/08/17 02:38:24;;;;;;;18.00;13.52;;;;;;;20.56;68.55;97956.00;5034826;28;20075;-71
2022/08/17 02:40:49;;;;;;;15.60;13.30;;;;;;;20.59;68.40;97957.22;5034582;28;20028;-71
2022/08/17 02:43:15;;;;;;;15.70;12.95;;;;;;;20.60;68.52;97958.81;5034445;28;20385;-71
2022/08/17 02:45:40;;;;;;;15.68;12.98;;;;;;;20.59;68.45;97958.03;5034616;28;20108;-72
2022/08/17 02:48:05;;;;;;;16.67;13.52;;;;;;;20.59;68.56;97955.25;5031614;28;20471;-71
2022/08/17 02:50:31;;;;;;;16.13;12.77;;;;;;;20.57;68.41;97949.25;5033484;28;20156;-72
2022/08/17 02:52:57;;;;;;;17.73;13.68;;;;;;;20.56;68.47;97947.66;5033319;28;20472;-72
2022/08/17 02:55:30;;;;;;;17.25;13.57;;;;;;;20.57;68.48;97954.03;5040382;28;20398;-72
2022/08/17 02:57:56;;;;;;;16.40;13.18;;;;;;;20.55;68.21;97954.41;5053980;28;20032;-72
2022/08/17 03:00:27;;;;;;;15.65;13.23;;;;;;;20.52;68.04;97953.19;5054159;28;20048;-72
2022/08/17 03:02:55;;;;;;;19.25;14.10;;;;;;;20.50;68.27;97957.50;5054083;28;20025;-72
2022/08/17 03:05:22;;;;;;;18.25;14.15;;;;;;;20.48;68.46;97957.06;5054039;28;20398;-71
2022/08/17 03:07:48;;;;;;;15.15;12.75;;;;;;;20.43;68.40;97949.84;5053760;28;20029;-71
2022/08/17 03:10:16;;;;;;;16.67;12.35;;;;;;;20.38;68.25;97950.16;5053776;28;20028;-71
2022/08/17 03:12:43;;;;;;;14.90;12.15;;;;;;;20.35;68.14;97948.13;5052564;28;20424;-72
2022/08/17 03:15:16;;;;;;;18.67;12.60;;;;;;;20.29;68.05;97957.97;5053863;28;20095;-72
2022/08/17 03:17:42;;;;;;;15.50;12.35;;;;;;;20.25;68.07;97962.69;5053527;28;20032;-72
2022/08/17 03:20:09;;;;;;;16.70;12.35;;;;;;;20.18;68.01;97969.72;5053965;28;20482;-72
2022/08/17 03:22:42;;;;;;;13.93;11.90;;;;;;;20.13;67.76;97972.03;5053909;28;20032;-72
2022/08/17 03:25:11;;;;;;;16.85;12.57;;;;;;;20.07;68.21;97969.56;5053744;28;20502;-72
2022/08/17 03:27:37;;;;;;;17.52;13.60;;;;;;;20.04;68.04;97969.50;5053704;28;20033;-72
2022/08/17 03:30:07;;;;;;;15.10;12.25;;;;;;;19.99;68.34;97969.81;5053623;28;20021;-71
2022/08/17 03:32:59;;;;;;;16.52;12.38;;;;;;;19.95;68.09;97969.78;5053464;28;20048;-71
2022/08/17 03:35:28;;;;;;;15.73;11.68;;;;;;;19.92;67.99;97974.09;5052430;28;20044;-72
2022/08/17 03:37:54;;;;;;;16.60;11.88;;;;;;;19.90;68.32;97973.66;5053427;28;20044;-72
2022/08/17 03:40:20;;;;;;;15.60;11.95;;;;;;;19.88;68.41;97976.00;5053617;28;20108;-72
2022/08/17 03:42:45;;;;;;;16.67;12.57;;;;;;;19.87;68.51;97977.16;5053263;28;20556;-71
2022/08/17 03:45:14;;;;;;;17.38;12.48;;;;;;;19.86;68.59;97969.97;5053200;28;20560;-72
2022/08/17 03:58:45;;;;;;;14.43;11.98;;;;;;;;;;5033396;28;20037;-72
2022/08/17 04:01:12;;;;;;;14.90;11.75;;;;;;;19.77;69.06;97977.75;5033272;28;20026;-71
2022/08/17 04:03:38;;;;;;;18.13;12.15;;;;;;;19.80;69.10;97993.69;5033012;28;20076;-72
2022/08/17 04:06:04;;;;;;;17.85;12.13;;;;;;;19.79;69.08;97984.56;5033045;28;20055;-71
2022/08/17 04:08:30;;;;;;;16.55;12.35;;;;;;;19.81;69.16;97986.97;5033238;28;20022;-71
2022/08/17 04:10:56;;;;;;;16.05;11.57;;;;;;;19.82;69.26;98001.69;5026745;28;20496;-72
2022/08/17 04:13:22;;;;;;;15.98;11.93;;;;;;;19.82;69.21;97988.56;5013206;28;20028;-71
2022/08/17 04:15:48;;;;;;;15.55;12.77;;;;;;;19.84;69.05;97997.34;5033327;28;20020;-71
2022/08/17 04:18:17;;;;;;;18.10;12.18;;;;;;;19.84;69.06;97997.34;5028545;28;20028;-72
2022/08/17 04:20:42;;;;;;;17.52;12.88;;;;;;;19.85;69.30;97998.97;5032927;28;20036;-72
2022/08/17 04:23:14;;;;;;;15.95;11.90;;;;;;;19.87;69.37;98007.75;5032883;28;20022;-72
2022/08/17 04:25:48;;;;;;;16.27;12.50;;;;;;;19.90;69.14;98007.03;5032812;28;20108;-71
2022/08/17 04:28:15;;;;;;;15.25;12.50;;;;;;;19.92;69.17;98004.69;5021411;28;20161;-71
2022/08/17 04:30:41;;;;;;;16.98;12.18;;;;;;;19.95;69.63;98005.13;5049169;28;20074;-72
2022/08/17 04:33:09;;;;;;;17.23;11.98;;;;;;;19.97;69.39;98017.50;5047576;28;20430;-72
2022/08/17 04:35:51;;;;;;;16.93;12.10;;;;;;;20.01;69.27;98023.13;5032530;28;20476;-71
2022/08/17 04:38:30;;;;;;;15.20;12.07;;;;;;;20.02;69.38;98017.19;5032614;28;20029;-72
2022/08/17 04:43:43;;;;;;;15.85;12.10;;;;;;;20.09;69.47;98019.31;5032522;28;20048;-72
2022/08/17 04:46:15;;;;;;;17.40;12.48;;;;;;;20.13;69.38;98020.19;5035031;28;20025;-72
2022/08/17 04:48:46;;;;;;;15.95;12.88;;;;;;;20.17;69.27;98025.81;5026081;28;20021;-72
2022/08/17 04:51:19;;;;;;;17.35;12.57;;;;;;;20.21;69.44;98024.69;5029275;28;20052;-72
2022/08/17 04:53:47;;;;;;;15.57;12.55;;;;;;;20.26;69.63;98033.91;5029480;28;20625;-72
2022/08/17 04:56:15;;;;;;;15.30;12.45;;;;;;;20.31;69.60;98033.59;5030465;28;20021;-71
2022/08/17 04:58:45;;;;;;;19.67;13.05;;;;;;;20.33;69.59;98029.28;5016329;28;20061;-71
2022/08/17 05:01:11;;;;;;;18.08;14.30;;;;;;;20.37;69.70;98030.13;5028289;28;20021;-72
2022/08/17 05:03:36;;;;;;;21.55;14.68;;;;;;;20.42;69.85;98042.94;5033387;28;20033;-71
2022/08/17 05:06:02;;;;;;;18.65;14.30;;;;;;;20.45;69.73;98042.19;5031710;28;20797;-71
2022/08/17 05:08:28;;;;;;;17.83;14.02;;;;;;;20.50;69.84;98049.41;5027467;28;20494;-72
2022/08/17 05:10:53;;;;;;;17.50;14.10;;;;;;;20.53;69.89;98045.88;5030020;28;20072;-71
2022/08/17 05:13:23;;;;;;;16.55;14.07;;;;;;;20.56;69.90;98049.94;5031836;28;20037;-72
2022/08/17 05:15:53;;;;;;;18.67;13.80;;;;;;;20.59;69.96;98049.16;5030634;28;20143;-72
2022/08/17 05:18:19;;;;;;;18.48;14.35;;;;;;;20.63;69.93;98047.22;5031984;28;20018;-72
2022/08/17 05:20:45;;;;;;;19.80;13.95;;;;;;;20.66;69.88;98057.63;5030706;28;20030;-72
2022/08/17 05:23:13;;;;;;;18.75;14.38;;;;;;;20.72;69.93;98058.13;5026056;28;20080;-72
2022/08/17 05:25:43;;;;;;;16.70;13.52;;;;;;;20.75;70.01;98054.59;5049379;28;20036;-71
2022/08/17 05:28:09;;;;;;;;;;;;;;;20.82;69.56;98054.72;5052164;28;20021;-72
2022/08/17 05:30:36;;;;;;;16.00;13.10;;;;;;;20.89;69.74;98048.47;5032095;28;19917;-72
2022/08/17 05:33:04;;;;;;;16.52;12.77;;;;;;;20.92;69.58;98048.50;5040090;28;20032;-71
2022/08/17 05:35:31;;;;;;;17.63;13.05;;;;;;;20.96;69.89;98049.38;5051659;28;20033;-71
2022/08/17 05:37:57;;;;;;;18.88;12.57;;;;;;;21.00;69.84;98048.63;5036122;28;20033;-72
2022/08/17 05:40:24;;;;;;;17.50;13.23;;;;;;;21.04;69.56;98039.09;5034285;28;20072;-72
2022/08/17 05:42:51;;;;;;;15.27;12.68;;;;;;;21.10;69.81;98051.53;5035779;28;20501;-72
2022/08/17 05:45:20;;;;;;;16.80;13.30;;;;;;;21.15;69.59;98038.47;5035480;28;20041;-71
2022/08/17 05:47:46;;;;;;;18.48;12.30;;;;;;;21.21;69.38;98053.69;5035714;28;20037;-71
2022/08/17 05:50:25;;;;;;;15.00;11.80;;;;;;;21.28;69.51;98051.00;5035278;28;20038;-71
2022/08/17 05:53:21;;;;;;;15.95;12.23;;;;;;;21.36;69.32;98049.09;5035415;28;20041;-72
2022/08/17 05:55:49;;;;;;;16.58;11.60;;;;;;;21.46;69.10;98047.63;5024868;28;20029;-71
2022/08/17 05:58:21;;;;;;;16.05;11.40;;;;;;;21.51;69.15;98038.91;5029995;28;20013;-71
2022/08/17 06:00:59;;;;;;;13.15;11.35;;;;;;;21.59;68.88;98034.25;5034071;28;20057;-71
2022/08/17 06:03:39;;;;;;;14.93;11.00;;;;;;;21.65;68.81;98032.72;5035373;28;20052;-73
2022/08/17 06:06:07;;;;;;;;;;;;;;;21.75;68.48;98040.41;5035788;28;20038;-73
2022/08/17 06:08:57;;;;;;;19.58;14.35;;;;;;;21.79;68.11;98037.69;5035059;28;19920;-73
2022/08/17 06:11:35;;;;;;;21.00;15.57;;;;;;;21.85;68.06;98045.34;5026514;28;20615;-73
2022/08/17 06:14:30;;;;;;;15.13;11.07;;;;;;;21.90;67.86;98051.75;5042411;28;20028;-73
2022/08/17 06:17:18;;;;;;;14.00;10.02;;;;;;;21.99;67.76;98055.84;5032064;28;20057;-73
2022/08/17 06:19:55;;;;;;;14.27;11.43;;;;;;;22.05;67.35;98053.50;5033842;28;20056;-73
2022/08/17 06:22:24;;;;;;;16.17;11.45;;;;;;;22.09;67.36;98054.34;5035165;28;20100;-73
2022/08/17 06:24:56;;;;;;;17.00;11.30;;;;;;;22.13;66.88;98052.38;5034643;28;20455;-73
2022/08/17 06:27:38;;;;;;;12.75;10.32;;;;;;;22.16;66.53;98051.63;5035014;28;20028;-73
2022/08/17 06:30:08;;;;;;;14.48;10.80;;;;;;;22.19;66.34;98043.66;5033909;28;20092;-73
2022/08/17 06:32:34;;;;;;;;;;;;;;;22.24;66.21;98038.50;5033603;28;20037;-73
2022/08/17 06:35:02;;;;;;;14.38;10.73;;;;;;;22.29;66.17;98037.38;5033954;28;19917;-73
2022/08/17 06:37:36;;;;;;;16.15;11.05;;;;;;;22.30;65.79;98044.56;5034903;28;20030;-73
2022/08/17 06:40:19;;;;;;;12.35;10.20;;;;;;;22.35;65.91;98040.59;5035228;28;20025;-73
2022/08/17 06:43:15;;;;;;;13.27;11.15;;;;;;;22.40;65.64;98043.03;5036681;28;20434;-73
2022/08/17 06:45:48;;;;;;;14.70;11.30;;;;;;;22.48;65.52;98041.13;5036545;28;20044;-73
2022/08/17 06:48:38;;;;;;;14.32;11.00;;;;;;;22.52;65.42;98040.00;5023229;28;20100;-73
2022/08/17 06:51:17;;;;;;;13.02;10.30;;;;;;;22.58;65.22;98038.44;5018910;28;20544;-75
2022/08/17 06:54:17;;;;;;;13.63;9.63;;;;;;;22.66;65.10;98039.31;5039190;28;20033;-75
2022/08/17 06:56:53;;;;;;;12.98;9.80;;;;;;;22.73;64.99;98036.56;5039079;28;20037;-75
2022/08/17 06:59:24;;;;;;;12.02;10.23;;;;;;;22.81;65.01;98034.59;5032012;28;20025;-75
2022/08/17 07:01:51;;;;;;;12.77;10.55;;;;;;;22.89;64.91;98030.69;5032264;28;20061;-74
2022/08/17 07:04:22;;;;;;;16.17;11.68;;;;;;;22.96;64.76;98029.91;5028404;28;20017;-74
2022/08/17 07:09:56;;;;;;;11.35;9.63;;;;;;;23.11;64.47;98043.97;5028880;28;20072;-76
2022/08/17 07:12:26;;;;;;;12.88;10.15;;;;;;;23.15;64.34;98040.00;5030486;28;20113;-76
2022/08/17 07:14:59;;;;;;;11.45;9.65;;;;;;;23.22;64.24;98041.25;5030676;28;20024;-76
2022/08/17 07:17:26;;;;;;;12.40;8.95;;;;;;;23.29;64.20;98049.69;5030895;28;20021;-75
2022/08/17 07:20:00;;;;;;;12.82;10.15;;;;;;;23.35;64.00;98050.94;5030488;28;20027;-75
2022/08/17 07:22:52;;;;;;;12.75;9.95;;;;;;;23.42;63.95;98056.56;5027908;28;20032;-75
2022/08/17 07:25:20;;;;;;;11.50;8.80;;;;;;;23.48;63.94;98054.97;5027838;28;20495;-72
2022/08/17 07:27:51;;;;;;;11.30;10.07;;;;;;;23.55;63.71;98061.81;5028670;28;20038;-72
2022/08/17 07:30:26;;;;;;;11.82;9.57;;;;;;;23.59;63.41;98060.63;5028488;28;20034;-72
2022/08/17 07:32:59;;;;;;;15.95;9.50;;;;;;;23.65;63.47;98055.44;5024816;28;20116;-72
2022/08/17 07:35:27;;;;;;;12.18;9.73;;;;;;;23.71;63.36;98050.25;5024812;28;20060;-75
2022/08/17 07:38:29;;;;;;;15.25;12.20;;;;;;;23.78;63.40;98058.69;5026982;28;20029;-75
2022/08/17 07:41:01;;;;;;;11.18;9.32;;;;;;;23.84;63.01;98057.13;5027440;28;20037;-75
2022/08/17 07:43:38;;;;;;;10.07;8.93;;;;;;;23.89;62.84;98067.13;4963010;28;1742732;-75
2022/08/17 07:49:06;;;;;;;10.73;8.93;;;;;;;23.98;62.55;98073.19;5030195;28;20064;-75
2022/08/17 07:51:42;;;;;;;11.98;8.88;;;;;;;24.03;62.55;98064.38;5026400;28;20046;-76
2022/08/17 07:54:22;;;;;;;12.27;9.23;;;;;;;24.10;62.48;98062.81;5026823;28;20506;-75
2022/08/17 07:56:49;;;;;;;10.50;8.30;;;;;;;24.16;62.15;98061.22;5032105;28;20049;-75
2022/08/17 07:59:22;;;;;;;9.85;8.70;;;;;;;24.23;62.29;98064.81;5032685;28;20524;-75
2022/08/17 08:02:02;;;;;;;10.50;8.80;;;;;;;24.33;62.52;98068.84;5031037;28;20026;-75
2022/08/17 08:04:31;;;;;;;9.98;8.88;;;;;;;24.42;62.08;98071.25;5028286;28;20096;-75
2022/08/17 08:06:58;;;;;;;11.90;9.25;;;;;;;24.49;62.09;98073.25;5031261;28;20032;-76
2022/08/17 08:09:37;;;;;;;12.52;8.95;;;;;;;24.53;62.18;98082.47;5030890;28;20126;-75
2022/08/17 08:12:28;;;;;;;10.95;8.15;;;;;;;24.60;61.82;98076.06;5031867;28;20079;-77
2022/08/17 08:15:02;;;;;;;9.65;8.43;;;;;;;24.67;61.41;98064.84;5026817;28;20036;-75
2022/08/17 08:17:35;;;;;;;10.00;9.00;;;;;;;24.72;61.43;98061.69;5031166;28;20025;-75
2022/08/17 08:20:07;;;;;;;10.65;8.38;;;;;;;24.81;61.00;98072.47;5061351;28;20034;-76
2022/08/17 08:22:46;;;;;;;13.00;9.07;;;;;;;24.90;61.18;98074.88;5034213;28;20042;-76
2022/08/17 08:25:41;;;;;;;11.05;9.05;;;;;;;25.00;61.21;98070.47;5035003;28;20104;-78
2022/08/17 08:28:23;;;;;;;12.40;9.88;;;;;;;25.03;61.08;98066.84;5032440;28;20037;-78
2022/08/17 08:31:03;;;;;;;10.65;8.93;;;;;;;25.09;61.13;98063.22;5030449;28;20061;-75
2022/08/17 08:33:56;;;;;;;9.57;8.50;;;;;;;25.17;60.90;98075.22;5029315;28;20044;-74
2022/08/17 08:36:49;;;;;;;9.38;8.27;;;;;;;25.26;61.18;98070.00;5028091;28;20483;-75
2022/08/17 08:39:20;;;;;;;9.80;8.55;;;;;;;25.34;60.49;98075.59;5029443;28;20030;-73
2022/08/17 08:42:02;;;;;;;9.45;8.52;;;;;;;25.41;60.76;98079.16;5023432;28;20029;-76
2022/08/17 08:44:51;;;;;;;9.25;8.25;;;;;;;25.48;60.37;98083.97;5027026;28;20103;-76
2022/08/17 08:47:47;;;;;;;9.90;8.80;;;;;;;25.56;60.38;98077.16;5029079;28;20034;-74
2022/08/17 08:50:22;;;;;;;10.00;8.45;;;;;;;25.63;60.09;98075.53;5033440;28;20048;-75
2022/08/17 08:53:14;;;;;;;9.13;8.23;;;;;;;25.67;59.78;98079.13;5028366;28;20527;-74
2022/08/17 08:56:07;;;;;;;12.02;9.32;;;;;;;25.73;59.34;98073.88;5030550;28;20038;-74
2022/08/17 08:58:54;;;;;;;12.13;9.32;;;;;;;25.79;59.29;98075.84;5026910;28;20057;-71
2022/08/17 09:02:02;;;;;;;9.23;8.07;;;;;;;25.86;59.61;98084.25;5033332;28;20042;-73
2022/08/17 09:05:01;;;;;;;11.40;8.60;;;;;;;25.97;59.23;98080.56;5029838;28;20487;-72
2022/08/17 09:08:01;;;;;;;9.48;7.97;;;;;;;26.05;58.76;98078.53;5031811;28;20413;-74
2022/08/17 09:10:44;;;;;;;10.65;8.35;;;;;;;26.12;58.63;98082.09;5037570;28;20036;-75
2022/08/17 09:13:15;;;;;;;11.05;9.15;;;;;;;26.20;58.31;98085.69;5031845;28;20033;-74
2022/08/17 09:15:46;;;;;;;9.65;8.60;;;;;;;26.23;57.89;98084.06;5031456;28;20399;-74
2022/08/17 09:18:14;;;;;;;10.55;8.18;;;;;;;26.25;57.24;98081.66;5031855;28;20455;-74
2022/08/17 09:20:55;;;;;;;9.97;8.10;;;;;;;26.29;57.75;98074.78;5030684;28;20032;-74
2022/08/17 09:23:31;;;;;;;9.52;8.32;;;;;;;26.35;56.98;98074.34;5033633;28;20319;-74
2022/08/17 09:26:21;;;;;;;9.32;8.20;;;;;;;26.41;56.75;98075.53;5030456;28;20483;-72
2022/08/17 09:28:52;;;;;;;9.93;8.35;;;;;;;26.49;56.94;98090.31;5031379;28;20021;-74
2022/08/17 09:31:23;;;;;;;11.20;8.13;;;;;;;26.56;56.34;98079.03;5028270;28;20022;-74
2022/08/17 09:33:49;;;;;;;9.85;8.35;;;;;;;26.65;56.23;98078.53;5032285;28;20037;-76
2022/08/17 09:36:24;;;;;;;9.55;8.52;;;;;;;26.73;56.00;98080.88;5029259;28;20025;-75
2022/08/17 09:38:52;;;;;;;12.23;8.20;;;;;;;26.81;55.89;98078.00;5029674;28;20100;-74
2022/08/17 09:41:56;;;;;;;10.18;8.40;;;;;;;26.86;54.94;98078.41;5030267;28;20402;-75
2022/08/17 09:44:22;;;;;;;9.65;8.18;;;;;;;26.94;54.62;98081.13;5015162;28;20057;-74
2022/08/17 09:47:16;;;;;;;9.05;7.90;;;;;;;26.98;54.45;98067.81;5028374;28;20034;-78
2022/08/17 09:49:44;;;;;;;9.45;8.45;;;;;;;27.02;54.17;98069.41;5029309;28;20037;-77
2022/08/17 09:52:18;;;;;;;10.35;8.57;;;;;;;27.10;54.61;98072.16;5029501;28;20056;-75
2022/08/17 09:54:44;;;;;;;10.15;8.48;;;;;;;27.18;54.33;98066.00;5025927;28;20025;-74
2022/08/17 09:57:22;;;;;;;9.57;8.05;;;;;;;27.28;54.64;98061.47;5029025;28;20022;-74
2022/08/17 10:00:25;;;;;;;10.27;7.93;;;;;;;27.40;54.72;98068.56;5024733;28;20026;-74
2022/08/17 10:03:18;;;;;;;9.65;8.65;;;;;;;27.51;53.91;98065.66;5022753;28;20029;-76
2022/08/17 10:05:48;;;;;;;9.35;7.47;;;;;;;27.53;53.59;98068.84;5023824;28;20427;-74
2022/08/17 10:08:43;;;;;;;9.13;8.23;;;;;;;27.58;53.02;98056.34;5032419;28;20454;-75
2022/08/17 10:11:21;;;;;;;9.10;7.90;;;;;;;27.60;52.63;98060.31;5016574;28;20099;-75
2022/08/17 10:13:52;;;;;;;11.15;8.27;;;;;;;27.64;51.95;98063.13;5029341;28;20030;-73
2022/08/17 10:16:42;;;;;;;13.15;7.68;;;;;;;27.70;51.77;98060.63;5043530;28;20037;-72
2022/08/17 10:19:22;;;;;;;9.10;7.68;;;;;;;27.80;52.19;98068.13;5024045;28;20164;-73
2022/08/17 10:27:50;;;;;;;7.32;6.63;;;;;;;28.12;51.28;98075.38;5032838;28;20471;-76
2022/08/17 10:30:19;;;;;;;8.07;7.22;;;;;;;28.21;51.08;98078.47;5032192;28;20053;-77
2022/08/17 10:32:47;;;;;;;;;;;;;;;28.31;51.13;98071.06;5033464;28;20040;-75
2022/08/17 10:35:28;;;;;;;8.43;6.80;;;;;;;28.38;50.26;98070.97;5029513;28;19957;-75
2022/08/17 10:38:31;;;;;;;8.98;7.30;;;;;;;28.46;49.86;98068.03;5031627;28;20041;-75
2022/08/17 10:41:15;;;;;;;9.00;6.57;;;;;;;28.50;49.29;98066.75;5033227;28;20171;-75
2022/08/17 10:44:03;;;;;;;7.53;6.22;;;;;;;28.58;49.52;98069.44;5031834;28;20045;-74
2022/08/17 10:47:06;;;;;;;7.38;6.65;;;;;;;28.68;48.79;98062.84;5040465;28;20098;-74
2022/08/17 10:49:46;;;;;;;6.65;5.60;;;;;;;28.75;47.45;98059.91;5033609;28;20061;-74
2022/08/17 10:52:21;;;;;;;6.45;5.85;;;;;;;28.78;47.38;98053.41;5032216;28;20064;-74
2022/08/17 10:54:49;;;;;;;7.07;6.38;;;;;;;28.86;46.84;98056.91;5033556;28;20033;-74
2022/08/17 10:57:33;;;;;;;10.32;6.68;;;;;;;28.92;47.23;98054.38;5032470;28;20074;-74
2022/08/17 11:00:27;;;;;;;6.57;5.93;;;;;;;29.00;46.41;98058.69;5031493;28;20049;-75
2022/08/17 11:02:54;;;;;;;6.80;6.10;;;;;;;29.02;45.31;98055.41;5028622;28;20024;-75
2022/08/17 11:05:41;;;;;;;6.68;5.97;;;;;;;29.03;45.61;98049.34;5034365;28;20037;-73
2022/08/17 11:08:19;;;;;;;6.60;6.07;;;;;;;29.13;45.70;98060.88;5031550;28;20045;-74
2022/08/17 11:11:34;;;;;;;6.32;5.72;;;;;;;29.21;46.32;98057.47;5030347;28;20025;-73
2022/08/17 11:14:30;;;;;;;7.10;6.03;;;;;;;29.28;45.66;98067.81;5043985;28;20037;-76
2022/08/17 11:17:13;;;;;;;8.13;6.53;;;;;;;29.32;45.49;98073.41;5033656;28;20087;-75
2022/08/17 11:20:10;;;;;;;8.65;7.18;;;;;;;29.36;45.27;98068.47;5027184;28;20033;-72
2022/08/17 11:22:57;;;;;;;8.38;6.47;;;;;;;29.41;44.50;98071.63;5027723;28;20036;-75
2022/08/17 11:25:50;;;;;;;8.50;6.90;;;;;;;29.43;44.41;98059.09;5028486;28;20041;-73
2022/08/17 11:28:20;;;;;;;7.93;6.15;;;;;;;29.47;43.86;98065.50;5032384;28;20109;-76
2022/08/17 11:30:49;;;;;;;7.15;6.03;;;;;;;29.52;42.96;98062.16;5032211;28;20021;-76
2022/08/17 11:33:43;;;;;;;9.32;6.30;;;;;;;29.52;43.11;98060.13;5032171;28;20037;-76
2022/08/17 11:36:18;;;;;;;6.10;5.50;;;;;;;29.56;42.92;98066.50;5028866;28;20034;-75
2022/08/17 11:39:13;;;;;;;5.57;5.07;;;;;;;29.63;42.90;98056.28;5031323;28;20056;-75
2022/08/17 11:42:04;;;;;;;6.55;5.85;;;;;;;29.76;43.34;98051.53;5031840;28;20037;-76
2022/08/17 11:44:40;;;;;;;6.65;6.05;;;;;;;29.85;42.37;98050.97;5031940;28;20050;-75
2022/08/17 11:53:38;;;;;;;6.35;5.70;;;;;;;29.97;42.03;98041.81;5025184;28;20044;-75
2022/08/17 11:56:25;;;;;;;7.00;6.30;;;;;;;30.07;41.61;98050.50;5031816;28;20159;-75
2022/08/17 11:58:51;;;;;;;7.95;6.60;;;;;;;30.15;41.65;98040.63;5026919;28;20035;-75
2022/08/17 12:01:22;;;;;;;6.65;5.97;;;;;;;30.25;41.56;98042.41;5026711;28;20025;-76
2022/08/17 12:03:57;;;;;;;6.53;5.93;;;;;;;30.31;41.12;98037.00;5030979;28;20037;-75
2022/08/17 12:06:26;;;;;;;8.20;5.40;;;;;;;30.40;41.29;98037.19;5029861;28;20046;-75
2022/08/17 12:09:15;;;;;;;7.85;6.57;;;;;;;30.52;41.62;98040.56;5030325;28;20032;-75
2022/08/17 12:12:11;;;;;;;6.80;6.10;;;;;;;30.68;41.03;98036.97;5031525;28;20033;-76
2022/08/17 12:14:39;;;;;;;5.93;5.43;;;;;;;30.80;39.80;98036.22;5026965;28;20045;-75
2022/08/17 12:17:12;;;;;;;8.20;6.10;;;;;;;30.82;39.77;98030.13;5061544;28;20021;-75
2022/08/17 12:19:40;;;;;;;7.05;6.32;;;;;;;30.88;39.75;98023.47;5033245;28;20281;-75
2022/08/17 12:22:17;;;;;;;6.57;5.88;;;;;;;30.99;39.72;98034.50;5030102;28;20041;-75
2022/08/17 12:25:12;;;;;;;5.60;5.07;;;;;;;31.10;40.13;98033.44;5030447;28;20427;-75
2022/08/17 12:27:45;;;;;;;6.82;5.30;;;;;;;31.24;39.11;98029.44;5028400;28;20083;-76